Time;durP1;ratioP1;P1;durP2;ratioP2;P2;SDS_P1;SDS_P2;PMS_P1;PMS_P2;Temp;Humidity;BMP_temperature;BMP_pressure;BME280_temperature;BME280_humidity;BME280_pressure;Samples;Min_cycle;Max_cycle;Signal;HPM_P1;HPM_P2
2021/08/31 00:02:26;;;;;;;11.47;6.43;;;15.80;99.90;;;;;;5063268;28;20542;-73
2021/08/31 00:04:54;;;;;;;11.07;7.63;;;15.80;99.90;;;;;;5056794;28;20627;-72
2021/08/31 00:07:21;;;;;;;9.53;6.70;;;15.90;99.90;;;;;;5054238;28;20563;-72
2021/08/31 00:09:48;;;;;;;8.63;6.90;;;15.80;99.90;;;;;;5053884;28;20781;-73
2021/08/31 00:12:15;;;;;;;9.93;5.73;;;15.80;99.90;;;;;;5061216;28;20558;-71
2021/08/31 00:14:42;;;;;;;10.80;7.17;;;15.70;99.90;;;;;;5066993;28;20673;-73
2021/08/31 00:17:09;;;;;;;9.43;5.80;;;15.80;99.90;;;;;;5064965;28;20438;-72
2021/08/31 00:19:37;;;;;;;10.57;8.47;;;15.80;99.90;;;;;;5053327;28;20897;-72
2021/08/31 00:22:06;;;;;;;13.93;7.40;;;15.80;99.90;;;;;;5057567;28;20535;-73
2021/08/31 00:24:33;;;;;;;8.60;7.10;;;15.80;99.90;;;;;;5056835;28;20957;-72
2021/08/31 00:27:00;;;;;;;10.87;7.27;;;15.70;99.90;;;;;;5060219;28;20458;-72
2021/08/31 00:29:27;;;;;;;7.93;6.50;;;15.70;99.90;;;;;;5065745;28;20554;-72
2021/08/31 00:31:54;;;;;;;9.33;6.97;;;15.70;99.90;;;;;;5062562;28;20454;-74
2021/08/31 00:34:21;;;;;;;10.70;6.83;;;15.60;99.90;;;;;;5061565;28;20518;-74
2021/08/31 00:36:48;;;;;;;10.77;7.20;;;15.70;99.90;;;;;;5053700;28;20513;-75
2021/08/31 00:39:16;;;;;;;8.47;6.60;;;15.70;99.90;;;;;;5058978;28;20446;-73
2021/08/31 00:41:43;;;;;;;11.57;7.60;;;15.60;99.90;;;;;;5065676;28;20462;-73
2021/08/31 00:44:21;;;;;;;13.10;7.73;;;15.50;99.90;;;;;;5063694;28;20482;-72
2021/08/31 00:46:50;;;;;;;8.83;6.60;;;15.40;99.90;;;;;;5063130;28;20529;-73
2021/08/31 00:49:17;;;;;;;11.83;7.70;;;15.30;99.90;;;;;;5066091;28;20919;-72
2021/08/31 00:51:44;;;;;;;12.70;7.77;;;15.40;99.90;;;;;;5065955;28;20554;-72
2021/08/31 00:54:12;;;;;;;11.40;7.50;;;15.50;99.90;;;;;;5063969;28;20567;-72
2021/08/31 00:56:41;;;;;;;10.63;6.13;;;15.50;99.90;;;;;;5065142;28;20878;-76
2021/08/31 00:59:08;;;;;;;10.97;7.03;;;15.50;99.90;;;;;;5060845;28;20456;-74
2021/08/31 01:01:35;;;;;;;13.63;7.87;;;15.50;99.90;;;;;;5058745;28;20484;-72
2021/08/31 01:04:02;;;;;;;12.77;8.53;;;15.50;99.90;;;;;;5052505;28;20598;-74
2021/08/31 01:06:29;;;;;;;11.10;8.00;;;15.60;99.90;;;;;;5059340;28;20454;-75
2021/08/31 01:08:57;;;;;;;13.63;7.33;;;15.60;99.90;;;;;;5066163;28;20453;-73
2021/08/31 01:11:25;;;;;;;11.60;7.90;;;15.60;99.90;;;;;;5064270;28;20934;-73
2021/08/31 01:13:53;;;;;;;10.83;7.30;;;15.60;99.90;;;;;;5058976;28;20483;-72
2021/08/31 01:16:20;;;;;;;11.37;7.50;;;15.60;99.90;;;;;;5062594;28;20503;-71
2021/08/31 01:18:47;;;;;;;13.40;8.70;;;15.70;99.90;;;;;;5066322;28;20483;-71
2021/08/31 01:21:15;;;;;;;13.57;8.50;;;15.70;99.90;;;;;;5055416;28;20550;-71
2021/08/31 01:23:46;;;;;;;14.03;8.80;;;15.70;99.90;;;;;;5059460;28;20455;-71
2021/08/31 01:26:16;;;;;;;14.70;8.60;;;15.80;99.90;;;;;;5061916;28;22415;-72
2021/08/31 01:28:43;;;;;;;10.63;7.27;;;15.80;99.90;;;;;;5059079;28;20442;-72
2021/08/31 01:31:10;;;;;;;11.13;8.33;;;15.80;99.90;;;;;;5055455;28;20508;-71
2021/08/31 01:33:37;;;;;;;13.07;7.70;;;15.70;99.90;;;;;;5056843;28;20550;-73
2021/08/31 01:36:20;;;;;;;9.77;7.13;;;15.70;99.90;;;;;;5060954;28;20495;-72
2021/08/31 01:38:47;;;;;;;17.13;8.27;;;15.60;99.90;;;;;;5056044;28;20461;-73
2021/08/31 01:41:16;;;;;;;10.07;7.50;;;15.50;99.90;;;;;;5064770;28;21291;-72
2021/08/31 01:43:43;;;;;;;12.50;7.73;;;15.40;99.90;;;;;;5057525;28;20545;-71
2021/08/31 01:46:10;;;;;;;12.23;8.13;;;15.40;99.90;;;;;;5059603;28;20479;-72
2021/08/31 01:48:38;;;;;;;11.40;8.23;;;15.30;99.90;;;;;;5060755;28;20530;-71
2021/08/31 01:51:05;;;;;;;7.93;6.63;;;15.20;99.90;;;;;;5057827;28;20604;-71
2021/08/31 01:53:32;;;;;;;9.13;6.30;;;15.20;99.90;;;;;;5058971;28;20613;-73
2021/08/31 01:55:59;;;;;;;15.23;8.40;;;15.10;99.90;;;;;;5066533;28;20571;-72
2021/08/31 01:58:28;;;;;;;12.23;7.87;;;15.20;99.90;;;;;;5065471;28;20549;-73
2021/08/31 02:00:55;;;;;;;13.07;8.83;;;15.30;99.90;;;;;;5071511;28;20558;-72
2021/08/31 02:03:22;;;;;;;20.53;11.03;;;15.40;99.90;;;;;;5055040;28;20466;-74
2021/08/31 02:05:49;;;;;;;12.23;8.00;;;15.50;99.90;;;;;;5059541;28;20494;-72
2021/08/31 02:08:16;;;;;;;13.50;8.20;;;15.40;99.90;;;;;;5059637;28;21534;-71
2021/08/31 02:10:43;;;;;;;14.03;8.80;;;15.30;99.90;;;;;;5059792;28;20442;-72
2021/08/31 02:13:10;;;;;;;11.70;8.80;;;15.40;99.90;;;;;;5058900;28;20554;-72
2021/08/31 02:15:39;;;;;;;14.80;9.23;;;15.40;99.90;;;;;;5058871;28;20478;-71
2021/08/31 02:18:06;;;;;;;14.63;9.37;;;15.40;99.90;;;;;;5049919;28;20455;-73
2021/08/31 02:20:33;;;;;;;12.60;9.30;;;15.40;99.90;;;;;;5061780;28;25039;-73
2021/08/31 02:23:00;;;;;;;13.77;8.60;;;15.40;99.90;;;;;;5048584;28;20508;-75
2021/08/31 02:25:27;;;;;;;14.53;9.60;;;15.30;99.90;;;;;;5060458;28;20989;-73
2021/08/31 02:27:54;;;;;;;11.90;9.67;;;15.30;99.90;;;;;;5060361;28;20466;-71
2021/08/31 02:30:22;;;;;;;14.03;9.77;;;15.40;99.90;;;;;;5055402;28;20447;-76
2021/08/31 02:32:51;;;;;;;17.03;10.50;;;15.40;99.90;;;;;;5059370;28;20459;-72
2021/08/31 02:35:19;;;;;;;12.53;8.80;;;15.40;99.90;;;;;;5054304;28;20926;-71
2021/08/31 02:37:46;;;;;;;14.20;7.80;;;15.40;99.90;;;;;;5056788;28;20992;-73
2021/08/31 02:40:13;;;;;;;12.90;7.67;;;15.30;99.90;;;;;;5057483;28;20979;-72
2021/08/31 02:42:40;;;;;;;19.17;9.27;;;15.20;99.90;;;;;;5058231;28;20460;-76
2021/08/31 02:45:08;;;;;;;11.63;8.80;;;15.20;99.90;;;;;;5055134;28;20565;-72
2021/08/31 02:47:35;;;;;;;11.20;8.00;;;15.20;99.90;;;;;;5057232;28;20458;-72
2021/08/31 02:50:04;;;;;;;13.00;8.33;;;15.10;99.90;;;;;;5053067;28;20562;-76
2021/08/31 02:52:31;;;;;;;11.13;6.83;;;15.10;99.90;;;;;;5055150;28;21047;-72
2021/08/31 02:54:58;;;;;;;13.83;8.10;;;15.20;99.90;;;;;;5063495;28;20482;-73
2021/08/31 02:57:25;;;;;;;13.70;9.20;;;15.20;99.90;;;;;;5065590;28;20528;-71
2021/08/31 02:59:52;;;;;;;11.60;8.03;;;15.00;99.90;;;;;;5058327;28;20546;-72
2021/08/31 03:02:19;;;;;;;11.20;7.37;;;14.90;99.90;;;;;;5059307;28;20547;-74
2021/08/31 03:04:46;;;;;;;13.83;8.43;;;14.90;99.90;;;;;;5057459;28;20478;-73
2021/08/31 03:07:16;;;;;;;10.47;7.17;;;14.90;99.90;;;;;;5052905;28;20459;-73
2021/08/31 03:09:44;;;;;;;11.60;7.27;;;14.80;99.90;;;;;;5060444;28;20538;-73
2021/08/31 03:12:11;;;;;;;10.10;7.93;;;14.80;99.90;;;;;;5063591;28;22068;-71
2021/08/31 03:14:39;;;;;;;11.77;7.53;;;14.80;99.90;;;;;;5062211;28;20553;-73
2021/08/31 03:17:06;;;;;;;12.10;8.00;;;14.70;99.90;;;;;;5060424;28;20836;-72
2021/08/31 03:19:32;;;;;;;16.87;7.40;;;14.70;99.90;;;;;;5067170;28;20511;-71
2021/08/31 03:22:01;;;;;;;13.43;8.37;;;14.70;99.90;;;;;;5057167;28;20550;-73
2021/08/31 03:24:30;;;;;;;14.00;7.87;;;14.80;99.90;;;;;;5051224;28;20525;-73
2021/08/31 03:26:58;;;;;;;12.43;7.50;;;14.80;99.90;;;;;;5056924;28;20561;-75
2021/08/31 03:29:25;;;;;;;12.73;8.57;;;14.80;99.90;;;;;;5058706;28;20838;-72
2021/08/31 03:31:52;;;;;;;14.13;7.20;;;14.80;99.90;;;;;;5053709;28;20465;-72
2021/08/31 03:34:19;;;;;;;10.13;8.60;;;14.70;99.90;;;;;;5060084;28;20562;-73
2021/08/31 03:36:46;;;;;;;12.27;7.00;;;14.70;99.90;;;;;;5067254;28;20510;-73
2021/08/31 03:39:13;;;;;;;10.00;7.23;;;14.70;99.90;;;;;;5070630;28;20446;-71
2021/08/31 03:41:41;;;;;;;14.33;8.70;;;14.70;99.90;;;;;;5066798;28;20492;-72
2021/08/31 03:44:08;;;;;;;18.53;9.10;;;14.70;99.90;;;;;;5060065;28;20513;-73
2021/08/31 03:46:35;;;;;;;14.27;8.60;;;14.70;99.90;;;;;;5068770;28;20955;-72
2021/08/31 03:49:02;;;;;;;12.23;7.73;;;14.70;99.90;;;;;;5073244;28;20438;-72
2021/08/31 03:51:29;;;;;;;14.80;6.90;;;14.70;99.90;;;;;;5059362;28;20465;-71
2021/08/31 03:53:57;;;;;;;10.00;7.40;;;14.70;99.90;;;;;;5068125;28;20549;-76
2021/08/31 03:56:24;;;;;;;11.70;7.77;;;14.80;99.90;;;;;;5057072;28;20554;-72
2021/08/31 03:58:53;;;;;;;11.40;6.93;;;14.90;99.90;;;;;;5068990;28;20489;-76
2021/08/31 04:01:20;;;;;;;12.67;8.00;;;14.90;99.90;;;;;;5065833;28;20847;-76
2021/08/31 04:03:46;;;;;;;14.20;9.50;;;14.90;99.90;;;;;;5067427;28;20532;-72
2021/08/31 04:06:13;;;;;;;15.50;10.77;;;14.90;99.90;;;;;;5066293;28;20478;-72
2021/08/31 04:08:40;;;;;;;13.03;8.77;;;14.90;99.90;;;;;;5058205;28;20462;-73
2021/08/31 04:11:07;;;;;;;17.20;10.37;;;15.00;99.90;;;;;;5059776;28;20502;-71
2021/08/31 04:13:34;;;;;;;26.33;10.07;;;15.00;99.90;;;;;;5052901;28;20557;-74
2021/08/31 04:16:03;;;;;;;24.40;12.80;;;14.80;99.90;;;;;;5063521;28;20537;-72
2021/08/31 04:18:29;;;;;;;20.20;11.43;;;14.80;99.90;;;;;;5063385;28;20451;-72
2021/08/31 04:20:56;;;;;;;16.13;10.97;;;14.90;99.90;;;;;;5065736;28;20885;-74
2021/08/31 04:23:23;;;;;;;17.23;11.17;;;14.70;99.90;;;;;;5060630;28;20466;-76
2021/08/31 04:25:50;;;;;;;19.20;11.63;;;14.40;99.90;;;;;;5062763;28;20540;-74
2021/08/31 04:28:17;;;;;;;19.80;10.50;;;14.40;99.90;;;;;;5068542;28;20564;-72
2021/08/31 04:30:44;;;;;;;16.90;9.10;;;14.40;99.90;;;;;;5068293;28;21062;-72
2021/08/31 04:33:12;;;;;;;16.30;8.93;;;14.50;99.90;;;;;;5065098;28;20454;-77
2021/08/31 04:35:39;;;;;;;16.60;10.47;;;14.50;99.90;;;;;;5052883;28;20567;-71
2021/08/31 04:38:07;;;;;;;12.97;9.10;;;14.50;99.90;;;;;;5067007;28;20490;-71
2021/08/31 04:40:34;;;;;;;20.23;11.63;;;14.50;99.90;;;;;;5073053;28;20469;-71
2021/08/31 04:43:01;;;;;;;14.93;10.00;;;14.70;99.90;;;;;;5063652;28;20461;-71
2021/08/31 04:45:27;;;;;;;13.13;9.10;;;14.70;99.90;;;;;;5061494;28;20585;-71
2021/08/31 04:47:54;;;;;;;18.50;11.00;;;14.60;99.90;;;;;;5064497;28;20447;-70
2021/08/31 04:50:23;;;;;;;17.93;10.27;;;14.70;99.90;;;;;;5065807;28;20474;-72
2021/08/31 04:52:50;;;;;;;15.80;10.03;;;14.80;99.90;;;;;;5063713;28;20880;-71
2021/08/31 04:55:17;;;;;;;20.13;11.07;;;14.80;99.90;;;;;;5058334;28;20478;-74
2021/08/31 04:57:44;;;;;;;19.40;11.20;;;14.90;99.90;;;;;;5072143;28;20516;-72
2021/08/31 05:00:12;;;;;;;18.30;10.57;;;15.10;99.90;;;;;;5073747;28;20552;-72
2021/08/31 05:02:39;;;;;;;18.70;11.57;;;15.00;99.90;;;;;;5067463;28;20538;-72
2021/08/31 05:05:06;;;;;;;24.70;13.03;;;15.10;99.90;;;;;;5060515;28;20519;-72
2021/08/31 05:07:35;;;;;;;22.50;11.00;;;15.10;99.90;;;;;;5067288;28;20455;-72
2021/08/31 05:10:02;;;;;;;25.13;13.20;;;15.20;99.90;;;;;;5071025;28;20500;-74
2021/08/31 05:12:29;;;;;;;24.37;14.57;;;15.20;99.90;;;;;;5071662;28;20481;-72
2021/08/31 05:14:56;;;;;;;24.07;13.50;;;15.30;99.90;;;;;;5063518;28;20566;-71
2021/08/31 05:17:23;;;;;;;22.23;11.60;;;15.10;99.90;;;;;;5067521;28;20585;-71
2021/08/31 05:19:53;;;;;;;35.93;14.43;;;15.20;99.90;;;;;;5070033;28;21006;-71
2021/08/31 05:22:20;;;;;;;25.90;14.73;;;15.30;99.90;;;;;;5067610;28;20438;-71
2021/08/31 05:24:48;;;;;;;23.90;12.73;;;15.40;99.90;;;;;;5070482;28;20491;-72
2021/08/31 05:27:15;;;;;;;28.77;15.50;;;15.30;99.90;;;;;;5077444;28;20956;-71
2021/08/31 05:29:42;;;;;;;26.37;15.60;;;15.30;99.90;;;;;;5073320;28;20884;-71
2021/08/31 05:32:09;;;;;;;33.40;15.90;;;15.20;99.90;;;;;;5071252;28;20518;-71
2021/08/31 05:34:36;;;;;;;24.97;13.10;;;15.20;99.90;;;;;;5067364;28;21018;-72
2021/08/31 05:37:03;;;;;;;26.73;12.40;;;15.20;99.90;;;;;;5071062;28;20478;-73
2021/08/31 05:39:33;;;;;;;18.93;12.20;;;15.30;99.90;;;;;;5070733;28;20498;-71
2021/08/31 05:42:04;;;;;;;30.70;11.20;;;15.30;99.90;;;;;;5066982;28;20455;-72
2021/08/31 05:44:31;;;;;;;21.97;12.10;;;15.20;99.90;;;;;;5069388;28;20492;-70
2021/08/31 05:47:01;;;;;;;24.47;12.87;;;15.30;99.90;;;;;;5070662;28;20447;-72
2021/08/31 05:49:29;;;;;;;35.07;15.23;;;15.30;99.90;;;;;;5072747;28;20486;-72
2021/08/31 05:51:57;;;;;;;27.93;13.93;;;15.30;99.90;;;;;;5071849;28;21181;-73
2021/08/31 05:54:25;;;;;;;25.53;13.90;;;15.40;99.90;;;;;;5069564;28;20541;-71
2021/08/31 05:56:52;;;;;;;21.87;11.53;;;15.50;99.90;;;;;;5071307;28;20474;-72
2021/08/31 05:59:21;;;;;;;21.23;12.17;;;15.60;99.90;;;;;;5069934;28;20465;-72
2021/08/31 06:01:48;;;;;;;26.87;12.70;;;15.70;99.90;;;;;;5071948;28;20451;-71
2021/08/31 06:04:15;;;;;;;22.43;12.37;;;15.70;99.90;;;;;;5065677;28;20958;-71
2021/08/31 06:06:42;;;;;;;27.00;13.37;;;15.70;99.90;;;;;;5068630;28;20538;-73
2021/08/31 06:09:09;;;;;;;25.00;12.27;;;15.70;99.90;;;;;;5070234;28;20467;-71
2021/08/31 06:11:38;;;;;;;24.57;12.73;;;15.70;99.90;;;;;;5063775;28;20835;-71
2021/08/31 06:14:05;;;;;;;26.93;13.07;;;15.60;99.90;;;;;;5067302;28;20474;-72
2021/08/31 06:16:34;;;;;;;30.47;13.77;;;15.70;99.90;;;;;;5070593;28;20486;-72
2021/08/31 06:19:01;;;;;;;27.23;12.87;;;15.80;99.90;;;;;;5070472;28;20894;-72
2021/08/31 06:21:28;;;;;;;30.20;11.80;;;15.60;99.90;;;;;;5061562;28;20458;-72
2021/08/31 06:23:55;;;;;;;19.37;9.63;;;15.80;99.90;;;;;;5062838;28;20894;-75
2021/08/31 06:26:22;;;;;;;22.63;11.20;;;15.80;99.90;;;;;;5070971;28;20490;-72
2021/08/31 06:28:49;;;;;;;17.87;9.60;;;15.90;99.90;;;;;;5070032;28;20533;-73
2021/08/31 06:31:16;;;;;;;21.07;11.00;;;15.70;99.90;;;;;;5070124;28;21032;-75
2021/08/31 06:33:46;;;;;;;25.50;11.43;;;15.70;99.90;;;;;;5071394;28;20454;-72
2021/08/31 06:36:14;;;;;;;29.87;12.50;;;15.80;99.90;;;;;;5070393;28;20518;-72
2021/08/31 06:38:41;;;;;;;17.97;8.77;;;15.80;99.90;;;;;;5069890;28;20451;-72
2021/08/31 06:41:07;;;;;;;16.57;10.07;;;15.90;99.90;;;;;;5071507;28;20516;-72
2021/08/31 06:43:35;;;;;;;22.33;11.60;;;15.90;99.90;;;;;;5070248;28;20990;-72
2021/08/31 06:46:02;;;;;;;27.33;10.67;;;15.90;99.90;;;;;;5069465;28;20466;-71
2021/08/31 06:48:29;;;;;;;20.63;10.00;;;16.00;99.90;;;;;;5070970;28;20449;-72
2021/08/31 06:50:57;;;;;;;13.87;8.70;;;15.80;99.90;;;;;;5070781;28;20451;-72
2021/08/31 06:53:24;;;;;;;30.07;12.10;;;15.90;99.90;;;;;;5067046;28;20490;-72
2021/08/31 06:55:51;;;;;;;19.97;9.97;;;16.00;99.90;;;;;;5070268;28;20898;-73
2021/08/31 06:58:18;;;;;;;19.97;10.10;;;16.00;99.90;;;;;;5070491;28;20530;-73
2021/08/31 07:00:45;;;;;;;16.73;8.67;;;16.00;99.90;;;;;;5067875;28;20485;-72
2021/08/31 07:03:12;;;;;;;16.20;8.60;;;16.00;99.90;;;;;;5059822;28;20484;-71
2021/08/31 07:05:39;;;;;;;15.97;8.17;;;16.00;99.90;;;;;;5066003;28;20482;-76
2021/08/31 07:08:08;;;;;;;18.53;9.13;;;16.10;99.90;;;;;;5064956;28;20533;-73
2021/08/31 07:10:35;;;;;;;21.23;10.70;;;16.00;99.90;;;;;;5071100;28;20474;-70
2021/08/31 07:13:02;;;;;;;14.70;9.37;;;16.00;99.90;;;;;;5071284;28;20454;-73
2021/08/31 07:15:29;;;;;;;19.00;9.17;;;16.10;99.90;;;;;;5070917;28;20506;-71
2021/08/31 07:17:56;;;;;;;21.27;10.37;;;16.20;99.90;;;;;;5064865;28;20536;-72
2021/08/31 07:20:23;;;;;;;18.27;9.70;;;16.10;99.90;;;;;;5069648;28;20800;-71
2021/08/31 07:22:50;;;;;;;15.20;8.73;;;16.10;99.90;;;;;;5069647;28;20477;-73
2021/08/31 07:25:18;;;;;;;16.20;8.73;;;16.30;99.90;;;;;;5067662;28;20522;-72
2021/08/31 07:27:45;;;;;;;15.67;8.33;;;16.30;99.90;;;;;;5069288;28;20435;-71
2021/08/31 07:30:13;;;;;;;16.03;8.63;;;16.30;99.90;;;;;;5065262;28;20947;-73
2021/08/31 07:32:40;;;;;;;18.60;10.60;;;16.30;99.90;;;;;;5058283;28;20989;-73
2021/08/31 07:35:09;;;;;;;19.03;9.43;;;16.40;99.90;;;;;;5064338;28;20486;-72
2021/08/31 07:37:36;;;;;;;15.77;8.67;;;16.40;99.90;;;;;;5063933;28;20489;-71
2021/08/31 07:40:04;;;;;;;15.03;9.90;;;16.50;99.90;;;;;;5072333;28;20939;-71
2021/08/31 07:42:33;;;;;;;20.17;9.10;;;16.60;99.90;;;;;;5072968;28;20466;-72
2021/08/31 07:45:04;;;;;;;20.50;9.90;;;16.70;99.90;;;;;;5071404;28;21053;-71
2021/08/31 07:47:31;;;;;;;18.67;8.50;;;16.80;99.90;;;;;;5073052;28;20445;-72
2021/08/31 07:49:58;;;;;;;23.03;9.57;;;17.00;99.90;;;;;;5091776;28;20442;-72
2021/08/31 07:52:25;;;;;;;13.23;8.13;;;17.00;99.90;;;;;;5093637;28;20441;-75
2021/08/31 07:54:52;;;;;;;21.70;10.30;;;17.00;99.90;;;;;;5073903;28;21039;-70
2021/08/31 07:57:19;;;;;;;14.93;10.40;;;17.10;99.90;;;;;;5072801;28;20490;-73
2021/08/31 07:59:47;;;;;;;16.53;8.90;;;17.10;99.90;;;;;;5071490;28;20549;-72
2021/08/31 08:02:14;;;;;;;15.77;8.23;;;17.20;99.90;;;;;;5070530;28;20458;-72
2021/08/31 08:04:41;;;;;;;14.03;9.30;;;17.40;99.90;;;;;;5068839;28;20501;-71
2021/08/31 08:07:08;;;;;;;19.40;8.60;;;17.30;99.90;;;;;;5072884;28;20474;-73
2021/08/31 08:09:35;;;;;;;16.10;8.93;;;17.30;99.90;;;;;;5072937;28;20472;-72
2021/08/31 08:12:02;;;;;;;17.13;7.23;;;17.50;99.90;;;;;;5072347;28;20442;-72
2021/08/31 08:14:29;;;;;;;15.77;8.70;;;17.60;99.90;;;;;;5071301;28;20474;-71
2021/08/31 08:16:58;;;;;;;12.63;7.70;;;17.70;99.90;;;;;;5072178;28;20962;-72
2021/08/31 08:19:25;;;;;;;14.17;7.80;;;17.90;99.90;;;;;;5068451;28;20549;-71
2021/08/31 08:21:52;;;;;;;12.90;8.40;;;17.90;99.90;;;;;;5070392;28;20462;-71
2021/08/31 08:24:18;;;;;;;13.47;9.37;;;18.00;99.90;;;;;;5072200;28;20470;-71
2021/08/31 08:26:45;;;;;;;13.07;7.80;;;18.10;99.90;;;;;;5072633;28;20520;-70
2021/08/31 08:29:12;;;;;;;18.03;7.47;;;18.00;99.90;;;;;;5067899;28;20450;-71
2021/08/31 08:31:44;;;;;;;15.70;8.20;;;18.00;99.90;;;;;;5069990;28;20537;-71
2021/08/31 08:34:13;;;;;;;53.90;9.30;;;18.00;99.90;;;;;;5071578;28;20454;-71
2021/08/31 08:36:40;;;;;;;13.33;7.43;;;18.20;99.90;;;;;;5069140;28;20563;-72
2021/08/31 08:39:07;;;;;;;10.47;7.17;;;18.60;99.90;;;;;;5068804;28;20478;-72
2021/08/31 08:41:35;;;;;;;11.40;7.40;;;18.80;99.90;;;;;;5069832;28;20477;-72
2021/08/31 08:44:03;;;;;;;13.33;6.60;;;18.60;99.90;;;;;;5071563;28;20636;-71
2021/08/31 08:46:31;;;;;;;18.07;7.00;;;18.40;99.90;;;;;;5072995;28;20485;-72
2021/08/31 08:48:58;;;;;;;15.80;6.50;;;18.50;99.90;;;;;;5072074;28;21584;-71
2021/08/31 08:51:27;;;;;;;12.03;7.17;;;18.60;99.90;;;;;;5071302;28;20466;-71
2021/08/31 08:53:54;;;;;;;13.70;6.03;;;18.60;99.90;;;;;;5069782;28;20898;-72
2021/08/31 08:56:21;;;;;;;9.93;6.13;;;18.60;99.90;;;;;;5072915;28;20509;-72
2021/08/31 08:58:48;;;;;;;13.27;6.70;;;18.80;99.90;;;;;;5072205;28;20998;-72
2021/08/31 09:01:15;;;;;;;11.00;7.70;;;19.00;99.90;;;;;;5072308;28;20557;-74
2021/08/31 09:03:52;;;;;;;11.10;7.20;;;19.10;99.90;;;;;;5069400;28;20497;-72
2021/08/31 09:06:21;;;;;;;8.10;5.80;;;19.40;99.90;;;;;;5067010;28;20487;-71
2021/08/31 09:08:58;;;;;;;11.43;5.87;;;19.40;99.90;;;;;;5069122;28;20962;-72
2021/08/31 09:11:27;;;;;;;12.77;5.60;;;19.40;99.90;;;;;;5067618;28;20928;-72
2021/08/31 09:14:22;;;;;;;12.37;6.37;;;19.40;99.90;;;;;;5071286;28;20930;-71
2021/08/31 09:16:50;;;;;;;12.67;5.70;;;19.60;99.90;;;;;;5068623;28;20517;-72
2021/08/31 09:19:17;;;;;;;9.37;6.27;;;20.30;99.90;;;;;;5058930;28;20464;-72
2021/08/31 09:21:47;;;;;;;9.80;5.60;;;20.70;99.90;;;;;;5072221;28;20450;-71
2021/08/31 09:24:16;;;;;;;10.77;6.53;;;20.60;99.90;;;;;;5071317;28;20516;-72
2021/08/31 09:26:45;;;;;;;10.73;6.57;;;20.50;99.90;;;;;;5069140;28;20490;-72
2021/08/31 09:29:19;;;;;;;12.57;6.70;;;20.50;99.90;;;;;;5070458;28;20896;-73
2021/08/31 09:31:51;;;;;;;9.30;5.70;;;20.20;99.90;;;;;;5072180;28;20450;-71
2021/08/31 09:34:41;;;;;;;12.80;5.90;;;20.30;99.90;;;;;;5070454;28;20454;-71
2021/08/31 09:37:32;;;;;;;12.23;6.30;;;20.50;99.90;;;;;;5068388;28;20511;-71
2021/08/31 09:40:09;;;;;;;13.73;7.20;;;20.60;99.90;;;;;;5065769;28;20531;-71
2021/08/31 09:42:52;;;;;;;7.60;5.27;;;21.20;99.90;;;;;;5061608;28;20976;-73
2021/08/31 09:45:24;;;;;;;7.90;5.47;;;21.90;99.90;;;;;;5067432;28;20489;-71
2021/08/31 09:47:52;;;;;;;12.43;5.10;;;22.20;99.90;;;;;;5070356;28;20463;-75
2021/08/31 09:50:36;;;;;;;9.70;6.57;;;22.20;99.90;;;;;;5070166;28;20562;-72
2021/08/31 09:53:10;;;;;;;8.60;6.27;;;23.00;99.90;;;;;;5068591;28;20438;-72
2021/08/31 09:55:40;;;;;;;11.13;6.00;;;24.60;99.90;;;;;;5069562;28;20463;-72
2021/08/31 09:58:09;;;;;;;8.80;6.43;;;25.50;99.90;;;;;;5063260;28;20563;-72
2021/08/31 10:00:37;;;;;;;11.30;6.60;;;27.10;99.90;;;;;;5068388;28;20854;-75
2021/08/31 10:03:04;;;;;;;10.70;6.47;;;27.80;99.90;;;;;;5069225;28;20451;-72
2021/08/31 10:05:33;;;;;;;12.43;5.23;;;26.90;99.90;;;;;;5071679;28;20490;-76
2021/08/31 10:08:02;;;;;;;12.70;4.93;;;27.30;99.90;;;;;;5072326;28;20439;-74
2021/08/31 10:10:29;;;;;;;5.80;5.20;;;26.30;99.90;;;;;;5074404;28;20831;-74
2021/08/31 10:13:01;;;;;;;9.63;6.20;;;25.50;99.90;;;;;;5062876;28;20791;-72
2021/08/31 10:15:30;;;;;;;7.40;4.70;;;25.30;99.90;;;;;;5063610;28;21025;-73
2021/08/31 10:17:57;;;;;;;7.23;4.83;;;26.60;99.90;;;;;;5066064;28;20470;-77
2021/08/31 10:20:27;;;;;;;9.70;5.33;;;27.60;99.90;;;;;;5064296;28;20470;-72
2021/08/31 10:22:55;;;;;;;8.33;5.40;;;27.50;99.90;;;;;;5068707;28;20767;-73
2021/08/31 10:25:23;;;;;;;6.93;5.20;;;25.50;99.90;;;;;;5071509;28;20471;-73
2021/08/31 10:27:51;;;;;;;7.30;4.70;;;24.50;99.90;;;;;;5080804;28;20518;-78
2021/08/31 10:30:33;;;;;;;7.90;5.60;;;25.40;99.90;;;;;;5073264;28;20495;-75
2021/08/31 10:33:02;;;;;;;4.70;4.20;;;26.70;99.90;;;;;;5069385;28;20887;-72
2021/08/31 10:35:52;;;;;;;5.93;4.93;;;27.70;99.90;;;;;;5068775;28;21104;-72
2021/08/31 10:38:49;;;;;;;5.10;4.60;;;28.90;99.90;;;;;;5066408;28;20555;-72
2021/08/31 10:41:44;;;;;;;6.33;4.17;;;27.20;99.90;;;;;;5063070;28;21076;-73
2021/08/31 10:44:29;;;;;;;6.10;4.60;;;26.00;99.90;;;;;;5070633;28;20811;-72
2021/08/31 10:47:09;;;;;;;5.90;4.37;;;25.20;99.90;;;;;;5058936;28;20982;-74
2021/08/31 10:50:16;;;;;;;6.03;4.67;;;26.00;99.90;;;;;;5071016;28;20869;-72
2021/08/31 10:52:45;;;;;;;8.67;4.83;;;26.40;99.90;;;;;;5046474;28;20523;-74
2021/08/31 10:55:39;;;;;;;9.00;5.40;;;27.20;99.90;;;;;;5069794;28;20988;-72
2021/08/31 10:58:09;;;;;;;5.60;3.90;;;28.60;99.90;;;;;;5069050;28;20474;-72
2021/08/31 11:00:54;;;;;;;6.20;4.13;;;29.60;99.90;;;;;;5066863;28;20446;-72
2021/08/31 11:03:37;;;;;;;11.47;4.80;;;30.10;99.90;;;;;;5069168;28;20939;-72
2021/08/31 11:06:35;;;;;;;8.50;5.43;;;30.90;98.60;;;;;;5068409;28;20504;-71
2021/08/31 11:09:11;;;;;;;8.10;5.43;;;31.50;98.10;;;;;;5066678;28;20435;-71
2021/08/31 11:11:38;;;;;;;5.53;4.33;;;30.20;97.90;;;;;;5067175;28;20997;-73
2021/08/31 11:14:06;;;;;;;5.67;4.67;;;30.60;95.50;;;;;;5073540;28;20531;-72
2021/08/31 11:16:36;;;;;;;6.60;4.67;;;31.20;94.40;;;;;;5070508;28;21055;-72
2021/08/31 11:19:06;;;;;;;6.80;4.53;;;31.10;93.60;;;;;;5072886;28;20474;-71
2021/08/31 11:21:49;;;;;;;6.97;4.90;;;31.60;92.90;;;;;;5072221;28;20494;-72
2021/08/31 11:24:16;;;;;;;5.50;5.00;;;31.10;93.20;;;;;;5070358;28;21024;-73
2021/08/31 11:26:43;;;;;;;8.03;4.73;;;28.50;95.80;;;;;;5071042;28;20439;-71
2021/08/31 11:29:11;;;;;;;7.83;5.20;;;26.90;99.20;;;;;;5073495;28;20490;-75
2021/08/31 11:31:39;;;;;;;6.83;5.60;;;26.40;99.90;;;;;;5072683;28;20885;-72
2021/08/31 11:34:11;;;;;;;8.83;5.43;;;26.10;99.90;;;;;;5072669;28;20463;-74
2021/08/31 11:36:43;;;;;;;4.47;4.00;;;25.50;99.90;;;;;;5070643;28;20907;-71
2021/08/31 11:39:14;;;;;;;5.90;4.80;;;26.20;99.90;;;;;;5069618;28;20466;-71
2021/08/31 11:41:43;;;;;;;7.03;4.90;;;27.80;99.90;;;;;;5073360;28;20472;-72
2021/08/31 11:44:14;;;;;;;6.00;5.10;;;29.30;98.80;;;;;;5072189;28;20459;-70
2021/08/31 11:46:44;;;;;;;4.80;4.17;;;30.90;98.20;;;;;;5073679;28;20528;-72
2021/08/31 11:49:18;;;;;;;6.47;4.47;;;31.80;94.00;;;;;;5063717;28;20528;-73
2021/08/31 11:52:01;;;;;;;5.20;4.30;;;30.50;94.80;;;;;;5070297;28;20451;-74
2021/08/31 11:54:30;;;;;;;5.13;4.43;;;28.30;95.00;;;;;;5070137;28;20539;-72
2021/08/31 11:56:59;;;;;;;4.60;3.33;;;26.80;97.10;;;;;;5072593;28;20635;-71
2021/08/31 11:59:37;;;;;;;4.27;3.63;;;26.20;99.60;;;;;;5073711;28;20486;-71
2021/08/31 12:02:15;;;;;;;4.70;3.27;;;26.80;98.70;;;;;;5070474;28;20742;-72
2021/08/31 12:04:45;;;;;;;7.00;4.17;;;27.60;97.40;;;;;;5072747;28;20856;-72
2021/08/31 12:07:15;;;;;;;5.07;4.00;;;28.20;97.30;;;;;;5075475;28;20450;-76
2021/08/31 12:09:43;;;;;;;5.03;4.17;;;29.20;95.40;;;;;;5090015;28;21794;-78
2021/08/31 12:12:11;;;;;;;5.33;4.00;;;30.40;95.10;;;;;;5090469;28;20457;-78
2021/08/31 12:14:40;;;;;;;4.30;3.47;;;31.80;92.80;;;;;;5080752;28;20857;-73
2021/08/31 12:17:07;;;;;;;4.13;3.73;;;32.70;90.70;;;;;;5073151;28;20490;-72
2021/08/31 12:19:35;;;;;;;4.70;4.30;;;32.00;90.10;;;;;;5072149;28;20591;-73
2021/08/31 12:22:11;;;;;;;4.90;3.87;;;30.50;91.40;;;;;;5068307;28;20507;-72
2021/08/31 12:24:40;;;;;;;7.00;3.87;;;29.00;92.40;;;;;;5070034;28;20486;-73
2021/08/31 12:27:11;;;;;;;5.40;4.07;;;27.50;94.70;;;;;;5073669;28;20504;-73
2021/08/31 12:29:45;;;;;;;7.13;4.43;;;26.90;96.70;;;;;;5073671;28;20520;-73
2021/08/31 12:32:13;;;;;;;7.33;3.37;;;27.90;96.40;;;;;;5073384;28;20481;-73
2021/08/31 12:34:40;;;;;;;4.73;4.00;;;29.70;93.60;;;;;;5068763;28;20485;-71
2021/08/31 12:37:26;;;;;;;5.17;3.00;;;30.80;89.10;;;;;;5072499;28;20912;-73
2021/08/31 12:40:13;;;;;;;8.23;3.13;;;31.20;85.50;;;;;;5073668;28;20447;-72
2021/08/31 12:42:40;;;;;;;4.43;2.90;;;31.90;86.70;;;;;;5073907;28;20439;-72
2021/08/31 12:45:08;;;;;;;5.30;3.07;;;32.60;83.00;;;;;;5070812;28;20474;-72
2021/08/31 12:47:36;;;;;;;3.60;2.70;;;32.70;80.60;;;;;;5072927;28;20595;-74
2021/08/31 12:50:11;;;;;;;4.70;3.40;;;32.80;77.70;;;;;;5070891;28;21105;-72